createdAt,value
2022-08-17T00:00:05.756Z,35.00
2022-08-17T00:02:36.882Z,34.17
2022-08-17T00:05:10.695Z,35.63
2022-08-17T00:07:38.158Z,33.67
2022-08-17T00:10:05.952Z,31.65
2022-08-17T00:12:44.631Z,31.33
2022-08-17T00:15:14.021Z,30.00
2022-08-17T00:17:42.134Z,28.20
2022-08-17T00:20:12.082Z,30.98
2022-08-17T00:22:39.576Z,30.17
2022-08-17T00:25:13.954Z,30.60
2022-08-17T00:27:41.517Z,29.30
2022-08-17T00:30:12.243Z,30.05
2022-08-17T00:33:15.195Z,30.17
2022-08-17T00:35:35.792Z,29.13
2022-08-17T00:38:04.142Z,28.50
2022-08-17T00:40:39.889Z,31.35
2022-08-17T00:43:20.270Z,28.10
2022-08-17T00:45:48.550Z,28.48
2022-08-17T00:48:29.952Z,29.05
2022-08-17T00:51:16.253Z,29.30
2022-08-17T00:53:46.581Z,28.23
2022-08-17T00:56:20.994Z,26.65
2022-08-17T00:58:52.172Z,28.25
2022-08-17T01:01:21.996Z,27.07
2022-08-17T01:03:51.605Z,24.27
2022-08-17T01:06:19.871Z,25.50
2022-08-17T01:08:47.610Z,25.67
2022-08-17T01:11:15.391Z,25.55
2022-08-17T01:13:45.121Z,23.33
2022-08-17T01:16:21.346Z,25.98
2022-08-17T01:18:51.706Z,25.63
2022-08-17T01:21:55.973Z,25.42
2022-08-17T01:24:23.480Z,24.63
2022-08-17T01:26:51.130Z,24.60
2022-08-17T01:29:21.152Z,23.27
2022-08-17T01:31:53.676Z,25.08
2022-08-17T01:34:22.305Z,23.70
2022-08-17T01:36:50.833Z,20.75
2022-08-17T01:39:24.491Z,22.70
2022-08-17T01:41:57.273Z,21.13
2022-08-17T01:44:26.841Z,21.77
2022-08-17T01:46:55.158Z,24.50
2022-08-17T01:49:23.591Z,22.60
2022-08-17T01:51:51.122Z,22.88
2022-08-17T01:54:20.523Z,24.90
2022-08-17T01:56:51.895Z,24.60
2022-08-17T01:59:21.447Z,26.65
2022-08-17T02:01:49.072Z,28.08
2022-08-17T02:04:16.981Z,31.48
2022-08-17T02:06:52.603Z,31.13
2022-08-17T02:09:25.436Z,32.13
2022-08-17T02:14:22.126Z,28.98
2022-08-17T02:16:49.891Z,24.92
2022-08-17T02:19:17.692Z,24.67
2022-08-17T02:21:48.466Z,28.50
2022-08-17T02:24:59.607Z,32.88
2022-08-17T02:27:12.838Z,25.05
2022-08-17T02:29:40.459Z,23.60
2022-08-17T02:32:20.876Z,24.52
2022-08-17T02:34:55.612Z,23.60
2022-08-17T02:37:23.116Z,23.08
2022-08-17T02:39:50.740Z,25.25
2022-08-17T02:42:18.448Z,27.58
2022-08-17T02:44:45.922Z,25.27
2022-08-17T02:47:13.527Z,26.00
2022-08-17T02:49:41.110Z,20.23
2022-08-17T02:52:09.123Z,20.23
2022-08-17T02:54:40.103Z,21.40
2022-08-17T02:57:08.539Z,18.92
2022-08-17T02:59:36.066Z,17.60
2022-08-17T03:02:12.205Z,18.17
2022-08-17T03:04:40.022Z,19.60
2022-08-17T03:07:07.663Z,20.17
2022-08-17T03:09:35.215Z,18.77
2022-08-17T03:12:12.401Z,23.15
2022-08-17T03:14:44.757Z,20.77
2022-08-17T03:17:16.926Z,19.10
2022-08-17T03:19:45.346Z,17.50
2022-08-17T03:22:35.848Z,17.40
2022-08-17T03:25:00.377Z,19.27
2022-08-17T03:27:28.368Z,17.95
2022-08-17T03:29:56.112Z,17.23
2022-08-17T03:32:23.691Z,17.60
2022-08-17T03:34:51.189Z,21.58
2022-08-17T03:37:18.677Z,23.85
2022-08-17T03:39:46.268Z,24.88
2022-08-17T03:42:32.498Z,25.52
2022-08-17T03:45:01.040Z,25.33
2022-08-17T03:47:46.581Z,31.08
2022-08-17T03:50:35.359Z,32.47
2022-08-17T03:53:24.543Z,32.53
2022-08-17T03:56:09.315Z,32.55
2022-08-17T03:58:37.353Z,32.95
2022-08-17T04:01:09.067Z,32.67
2022-08-17T04:03:36.728Z,32.15
2022-08-17T04:06:05.474Z,31.00
2022-08-17T04:08:33.523Z,30.23
2022-08-17T04:11:02.153Z,30.05
2022-08-17T04:13:29.666Z,30.98
2022-08-17T04:15:57.300Z,30.63
2022-08-17T04:18:25.959Z,31.40
2022-08-17T04:20:53.506Z,29.58
2022-08-17T04:23:20.992Z,31.00
2022-08-17T04:25:53.204Z,28.95
2022-08-17T04:28:21.312Z,28.20
2022-08-17T04:30:49.164Z,26.75
2022-08-17T04:33:19.598Z,25.73
2022-08-17T04:35:53.945Z,26.20
2022-08-17T04:38:25.150Z,23.83
2022-08-17T04:41:11.185Z,27.40
2022-08-17T04:43:40.945Z,25.05
2022-08-17T04:46:11.194Z,25.77
2022-08-17T04:48:42.588Z,26.10
2022-08-17T04:51:24.146Z,27.48
2022-08-17T04:53:55.106Z,25.98
2022-08-17T04:56:25.024Z,26.48
2022-08-17T04:58:56.140Z,27.42
2022-08-17T05:01:26.143Z,27.20
2022-08-17T05:03:56.091Z,26.85
2022-08-17T05:06:24.464Z,27.02
2022-08-17T05:08:52.285Z,30.20
2022-08-17T05:11:19.982Z,26.63
2022-08-17T05:13:50.100Z,25.90
2022-08-17T05:16:19.339Z,24.65
2022-08-17T05:18:46.967Z,23.80
2022-08-17T05:21:15.969Z,21.20
2022-08-17T05:23:44.268Z,22.42
2022-08-17T05:26:26.350Z,21.25
2022-08-17T05:29:00.382Z,19.27
2022-08-17T05:31:30.515Z,19.75
2022-08-17T05:33:58.441Z,18.00
2022-08-17T05:36:41.764Z,19.13
2022-08-17T05:39:16.643Z,19.30
2022-08-17T05:41:45.627Z,18.45
2022-08-17T05:44:13.169Z,17.40
2022-08-17T05:46:44.546Z,17.13
2022-08-17T05:49:15.158Z,16.88
2022-08-17T05:52:20.143Z,16.60
2022-08-17T05:55:20.886Z,15.15
2022-08-17T05:58:00.997Z,16.38
2022-08-17T06:00:37.938Z,15.98
2022-08-17T06:03:28.387Z,14.25
2022-08-17T06:06:08.902Z,16.17
2022-08-17T06:08:44.540Z,18.13
2022-08-17T06:11:11.954Z,19.10
2022-08-17T06:14:18.422Z,19.40
2022-08-17T06:16:50.918Z,20.52
2022-08-17T06:19:20.557Z,20.40
2022-08-17T06:21:52.330Z,20.65
2022-08-17T06:24:34.182Z,19.95
2022-08-17T06:27:30.662Z,19.40
2022-08-17T06:30:14.550Z,17.95
2022-08-17T06:32:45.783Z,19.13
2022-08-17T06:35:27.777Z,18.55
2022-08-17T06:38:21.856Z,17.05
2022-08-17T06:41:26.827Z,16.55
2022-08-17T06:44:07.190Z,16.15
2022-08-17T06:46:42.960Z,15.88
2022-08-17T06:49:25.859Z,14.15
2022-08-17T06:51:58.264Z,15.80
2022-08-17T06:54:37.946Z,14.25
2022-08-17T06:57:26.650Z,13.90
2022-08-17T06:59:59.705Z,12.68
2022-08-17T07:02:56.434Z,12.13
2022-08-17T07:05:31.685Z,11.80
2022-08-17T07:08:11.555Z,11.77
2022-08-17T07:10:45.568Z,12.00
2022-08-17T07:13:30.666Z,12.35
2022-08-17T07:16:08.900Z,12.02
2022-08-17T07:18:36.481Z,12.02
2022-08-17T07:21:20.718Z,11.25
2022-08-17T07:24:29.754Z,10.98
2022-08-17T07:27:06.321Z,11.45
2022-08-17T07:29:40.219Z,11.50
2022-08-17T07:32:09.543Z,10.95
2022-08-17T07:35:10.523Z,10.52
2022-08-17T07:37:40.860Z,9.95
2022-08-17T07:40:22.309Z,8.95
2022-08-17T07:43:26.523Z,8.98
2022-08-17T07:46:14.246Z,8.52
2022-08-17T07:48:44.946Z,7.20
2022-08-17T07:51:27.812Z,7.03
2022-08-17T07:54:13.091Z,7.50
2022-08-17T07:56:41.323Z,6.43
2022-08-17T07:59:18.398Z,8.32
2022-08-17T08:02:00.802Z,7.80
2022-08-17T08:04:59.828Z,8.63
2022-08-17T08:08:02.027Z,8.77
2022-08-17T08:10:38.913Z,9.95
2022-08-17T08:13:33.237Z,9.93
2022-08-17T08:16:22.582Z,9.63
2022-08-17T08:18:56.759Z,10.93
2022-08-17T08:21:34.310Z,11.07
2022-08-17T08:24:19.563Z,10.27
2022-08-17T08:27:04.205Z,11.65
2022-08-17T08:29:43.833Z,12.55
2022-08-17T08:32:26.535Z,11.75
2022-08-17T08:35:04.753Z,12.95
2022-08-17T08:38:13.633Z,12.18
2022-08-17T08:41:02.580Z,13.15
2022-08-17T08:43:54.770Z,12.98
2022-08-17T08:46:52.517Z,14.05
2022-08-17T08:49:39.027Z,13.57
2022-08-17T08:52:30.852Z,13.52
2022-08-17T08:55:28.054Z,15.15
2022-08-17T08:58:03.936Z,16.52
2022-08-17T09:00:35.728Z,16.70
2022-08-17T09:03:28.096Z,13.95
2022-08-17T09:06:33.509Z,11.40
2022-08-17T09:09:36.673Z,9.23
2022-08-17T09:12:22.206Z,7.50
2022-08-17T09:15:02.347Z,8.30
2022-08-17T09:18:14.566Z,7.82
2022-08-17T09:20:49.597Z,8.30
2022-08-17T09:23:26.695Z,8.55
2022-08-17T09:26:22.962Z,8.80
2022-08-17T09:29:00.233Z,11.25
2022-08-17T09:31:46.384Z,11.35
2022-08-17T09:34:28.204Z,14.10
2022-08-17T09:37:07.080Z,13.10
2022-08-17T09:39:43.357Z,12.85
2022-08-17T09:42:33.414Z,14.48
2022-08-17T09:45:19.388Z,12.80
2022-08-17T09:47:57.344Z,11.30
2022-08-17T09:51:03.610Z,11.15
2022-08-17T09:53:32.395Z,12.07
2022-08-17T09:56:21.568Z,11.77
2022-08-17T09:58:56.378Z,10.23
2022-08-17T10:01:44.113Z,10.50
2022-08-17T10:04:50.953Z,10.15
2022-08-17T10:08:09.219Z,10.75
2022-08-17T10:10:52.413Z,9.45
2022-08-17T10:13:54.607Z,11.05
2022-08-17T10:16:42.112Z,9.60
2022-08-17T10:19:31.443Z,10.52
2022-08-17T10:22:35.346Z,10.48
2022-08-17T10:25:37.811Z,9.65
2022-08-17T10:28:22.813Z,8.68
2022-08-17T10:31:16.599Z,9.73
2022-08-17T10:34:06.035Z,9.45
2022-08-17T10:36:39.155Z,9.40
2022-08-17T10:39:33.415Z,10.18
2022-08-17T10:42:30.287Z,9.35
2022-08-17T10:45:07.930Z,9.98
2022-08-17T10:48:06.233Z,9.75
2022-08-17T10:51:28.651Z,9.82
2022-08-17T10:53:57.755Z,9.18
2022-08-17T10:56:39.412Z,10.35
2022-08-17T10:59:07.354Z,9.07
2022-08-17T11:01:35.360Z,9.77
2022-08-17T11:04:30.567Z,8.68
2022-08-17T11:07:32.527Z,9.25
2022-08-17T11:10:15.798Z,10.45
2022-08-17T11:13:01.337Z,10.38
2022-08-17T11:15:43.333Z,10.00
2022-08-17T11:18:19.935Z,8.40
2022-08-17T11:21:42.575Z,7.75
2022-08-17T11:24:17.574Z,9.70
2022-08-17T11:27:02.165Z,8.90
2022-08-17T11:29:39.391Z,9.10
2022-08-17T11:32:28.086Z,11.50
2022-08-17T11:35:23.044Z,9.80
2022-08-17T11:38:29.040Z,9.70
2022-08-17T11:41:11.510Z,11.40
2022-08-17T11:44:15.423Z,10.25
2022-08-17T11:47:00.442Z,10.57
2022-08-17T11:50:16.846Z,10.27
2022-08-17T11:52:48.150Z,11.35
2022-08-17T11:55:36.418Z,10.98
2022-08-17T11:58:26.629Z,10.85
2022-08-17T12:00:59.966Z,12.32
2022-08-17T12:03:33.649Z,12.65
2022-08-17T12:06:17.047Z,11.77
2022-08-17T12:09:08.239Z,13.02
2022-08-17T12:12:04.589Z,14.20
2022-08-17T12:15:05.947Z,13.43
2022-08-17T12:17:41.244Z,15.50
2022-08-17T12:20:21.471Z,16.33
2022-08-17T12:22:56.354Z,15.32
2022-08-17T12:25:49.406Z,16.75
2022-08-17T12:28:39.054Z,16.60
2022-08-17T12:31:18.931Z,18.25
2022-08-17T12:33:48.043Z,20.15
2022-08-17T12:36:17.834Z,19.70
2022-08-17T12:39:12.783Z,21.55
2022-08-17T12:41:47.060Z,20.65
2022-08-17T12:44:24.939Z,21.52
2022-08-17T12:46:56.579Z,22.42
2022-08-17T12:49:26.536Z,21.48
2022-08-17T12:52:03.030Z,25.58
2022-08-17T12:54:39.650Z,24.45
2022-08-17T12:57:20.237Z,25.33
2022-08-17T12:59:52.998Z,25.13
2022-08-17T13:02:39.730Z,26.38
2022-08-17T13:05:09.669Z,24.60
2022-08-17T13:07:43.521Z,22.38
2022-08-17T13:10:36.149Z,23.27
2022-08-17T13:13:17.757Z,21.88
2022-08-17T13:16:09.439Z,21.35
2022-08-17T13:19:15.384Z,20.98
2022-08-17T13:21:49.526Z,20.88
2022-08-17T13:24:28.360Z,22.90
2022-08-17T13:27:15.230Z,21.63
2022-08-17T13:29:45.605Z,21.25
2022-08-17T13:32:22.902Z,19.92
2022-08-17T13:35:14.380Z,19.42
2022-08-17T13:37:41.425Z,19.70
2022-08-17T13:40:10.258Z,19.58
2022-08-17T13:42:52.770Z,20.17
2022-08-17T13:45:38.734Z,21.23
2022-08-17T13:48:13.696Z,19.52
2022-08-17T13:51:05.237Z,20.45
2022-08-17T13:53:34.271Z,19.58
2022-08-17T13:56:33.303Z,19.83
2022-08-17T13:59:11.715Z,20.88
2022-08-17T14:01:53.585Z,21.70
2022-08-17T14:07:11.464Z,20.95
2022-08-17T14:09:42.091Z,23.65
2022-08-17T14:12:13.007Z,20.65
2022-08-17T14:14:42.967Z,21.58
2022-08-17T14:17:11.660Z,18.33
2022-08-17T14:19:40.080Z,21.00
2022-08-17T14:22:11.602Z,20.00
2022-08-17T14:24:44.894Z,21.75
2022-08-17T14:27:13.216Z,21.92
2022-08-17T14:29:41.158Z,22.33
2022-08-17T14:32:19.326Z,20.60
2022-08-17T14:34:49.550Z,21.65
2022-08-17T14:37:18.883Z,20.27
2022-08-17T14:39:46.846Z,21.23
2022-08-17T14:42:16.551Z,18.70
2022-08-17T14:44:44.198Z,18.70
2022-08-17T14:47:15.246Z,19.83
2022-08-17T14:49:47.497Z,17.58
2022-08-17T14:52:21.456Z,18.58
2022-08-17T14:54:51.290Z,19.17
2022-08-17T14:57:25.828Z,20.25
2022-08-17T15:00:02.102Z,18.90
2022-08-17T15:02:31.063Z,20.10
2022-08-17T15:05:04.385Z,19.05
2022-08-17T15:07:32.266Z,18.30
2022-08-17T15:10:02.801Z,20.45
2022-08-17T15:12:34.047Z,20.60
2022-08-17T15:15:05.519Z,18.48
2022-08-17T15:17:44.191Z,20.90
2022-08-17T15:20:34.178Z,20.05
2022-08-17T15:23:01.759Z,20.23
2022-08-17T15:25:32.206Z,21.70
2022-08-17T15:28:00.852Z,21.58
2022-08-17T15:30:29.232Z,21.92
2022-08-17T15:32:58.758Z,21.27
2022-08-17T15:35:29.410Z,20.23
2022-08-17T15:38:11.650Z,22.63
2022-08-17T15:40:43.466Z,23.52
2022-08-17T15:43:16.254Z,21.52
2022-08-17T15:45:44.789Z,23.88
2022-08-17T15:48:40.641Z,20.92
2022-08-17T15:51:18.884Z,21.05
2022-08-17T15:53:50.322Z,22.08
2022-08-17T15:56:18.419Z,20.85
2022-08-17T15:58:47.622Z,19.23
2022-08-17T16:01:41.855Z,19.85
2022-08-17T16:04:26.385Z,19.80
2022-08-17T16:06:53.705Z,20.90
2022-08-17T16:09:21.186Z,19.15
2022-08-17T16:11:53.757Z,20.80
2022-08-17T16:14:33.939Z,18.40
2022-08-17T16:17:03.653Z,20.35
2022-08-17T16:19:32.463Z,21.15
2022-08-17T16:22:00.128Z,19.95
2022-08-17T16:24:27.668Z,19.58
2022-08-17T16:26:55.318Z,19.55
2022-08-17T16:29:23.377Z,19.10
2022-08-17T16:31:51.895Z,18.63
2022-08-17T16:34:19.608Z,19.00
2022-08-17T16:36:54.937Z,19.05
2022-08-17T16:39:29.282Z,17.98
2022-08-17T16:41:57.567Z,19.48
2022-08-17T16:44:26.149Z,19.20
2022-08-17T16:46:53.674Z,18.65
2022-08-17T16:49:36.039Z,19.35
2022-08-17T16:52:07.486Z,19.45
2022-08-17T16:54:35.782Z,17.38
2022-08-17T16:57:04.996Z,17.92
2022-08-17T16:59:41.062Z,18.65
2022-08-17T17:02:16.801Z,18.27
2022-08-17T17:04:53.001Z,18.60
2022-08-17T17:07:35.254Z,19.00
2022-08-17T17:10:10.310Z,19.05
2022-08-17T17:13:02.187Z,20.08
2022-08-17T17:15:31.344Z,19.95
2022-08-17T17:18:06.936Z,18.02
2022-08-17T17:20:43.757Z,18.70
2022-08-17T17:23:34.591Z,18.90
2022-08-17T17:26:18.865Z,20.42
2022-08-17T17:29:01.790Z,22.48
2022-08-17T17:31:39.144Z,21.58
2022-08-17T17:34:11.258Z,20.63
2022-08-17T17:36:58.979Z,19.67
2022-08-17T17:39:36.224Z,20.95
2022-08-17T17:42:07.688Z,20.73
2022-08-17T17:44:41.438Z,18.65
2022-08-17T17:47:09.861Z,20.88
2022-08-17T17:49:43.783Z,19.92
2022-08-17T17:52:39.087Z,20.15
2022-08-17T17:55:32.914Z,20.40
2022-08-17T17:58:13.320Z,19.98
2022-08-17T18:01:17.823Z,18.83
2022-08-17T18:03:51.470Z,19.65
2022-08-17T18:06:21.859Z,20.13
2022-08-17T18:09:06.295Z,19.50
2022-08-17T18:11:58.932Z,18.08
2022-08-17T18:15:04.209Z,19.23
2022-08-17T18:17:33.422Z,17.00
2022-08-17T18:20:01.462Z,18.73
2022-08-17T18:22:28.972Z,17.27
2022-08-17T18:24:57.317Z,17.02
2022-08-17T18:27:35.964Z,17.50
2022-08-17T18:30:29.784Z,17.90
2022-08-17T18:33:24.528Z,16.92
2022-08-17T18:35:58.864Z,14.35
2022-08-17T18:38:36.369Z,14.88
2022-08-17T18:41:19.731Z,15.40
2022-08-17T18:44:06.678Z,14.95
2022-08-17T18:46:37.982Z,14.15
2022-08-17T18:49:24.870Z,16.42
2022-08-17T18:52:10.895Z,18.58
2022-08-17T18:54:39.113Z,19.80
2022-08-17T18:57:08.591Z,18.70
2022-08-17T18:59:45.396Z,16.02
2022-08-17T19:02:22.061Z,10.50
2022-08-17T19:05:27.067Z,12.35
2022-08-17T19:07:55.100Z,13.52
2022-08-17T19:10:32.662Z,13.60
2022-08-17T19:13:24.417Z,8.57
2022-08-17T19:16:15.117Z,4.90
2022-08-17T19:18:48.907Z,4.45
2022-08-17T19:21:22.435Z,5.07
2022-08-17T19:24:01.561Z,5.18
2022-08-17T19:26:54.550Z,7.50
2022-08-17T19:29:26.283Z,8.43
2022-08-17T19:31:59.605Z,9.77
2022-08-17T19:34:33.969Z,10.48
2022-08-17T19:37:26.748Z,3.42
2022-08-17T19:43:33.471Z,0.98
2022-08-17T19:46:11.978Z,1.00
2022-08-17T19:49:06.838Z,0.90
2022-08-17T19:51:47.821Z,0.90
2022-08-17T19:54:35.079Z,1.27
2022-08-17T19:57:22.776Z,3.38
2022-08-17T19:59:55.210Z,5.40
2022-08-17T20:02:41.185Z,5.43
2022-08-17T20:05:27.435Z,8.93
2022-08-17T20:08:03.009Z,9.27
2022-08-17T20:10:53.659Z,17.92
2022-08-17T20:13:33.202Z,15.45
2022-08-17T20:16:02.396Z,18.38
2022-08-17T20:18:47.547Z,22.70
2022-08-17T20:21:20.807Z,22.33
2022-08-17T20:23:54.309Z,22.75
2022-08-17T20:26:21.788Z,26.73
2022-08-17T20:29:16.731Z,25.80
2022-08-17T20:31:49.543Z,28.83
2022-08-17T20:34:33.469Z,29.30
2022-08-17T20:37:16.192Z,29.92
2022-08-17T20:40:06.469Z,32.78
2022-08-17T20:42:35.183Z,30.70
2022-08-17T20:45:25.921Z,29.52
2022-08-17T20:48:22.171Z,29.90
2022-08-17T20:50:57.055Z,27.50
2022-08-17T20:53:49.183Z,29.17
2022-08-17T20:56:44.387Z,28.52
2022-08-17T20:59:25.540Z,26.95
2022-08-17T21:02:18.653Z,28.77
2022-08-17T21:04:54.373Z,26.70
2022-08-17T21:07:42.765Z,26.50
2022-08-17T21:10:19.423Z,26.90
2022-08-17T21:12:53.218Z,26.38
2022-08-17T21:15:31.787Z,26.95
2022-08-17T21:18:18.853Z,25.65
2022-08-17T21:21:01.787Z,25.27
2022-08-17T21:24:03.332Z,24.70
2022-08-17T21:26:51.114Z,23.30
2022-08-17T21:29:31.516Z,25.02
2022-08-17T21:32:02.889Z,24.00
2022-08-17T21:34:44.582Z,24.60
2022-08-17T21:37:21.821Z,22.60
2022-08-17T21:40:00.329Z,24.60
2022-08-17T21:42:31.679Z,24.02
2022-08-17T21:45:13.399Z,26.40
2022-08-17T21:47:43.521Z,28.27
2022-08-17T21:50:23.726Z,27.75
2022-08-17T21:52:54.567Z,28.15
2022-08-17T21:55:29.447Z,26.52
2022-08-17T21:58:13.884Z,25.13
2022-08-17T22:00:44.993Z,24.13
2022-08-17T22:03:25.859Z,24.38
2022-08-17T22:05:53.443Z,23.63
2022-08-17T22:08:24.201Z,23.13
2022-08-17T22:11:01.543Z,23.58
2022-08-17T22:13:29.670Z,23.73
2022-08-17T22:16:29.255Z,24.50
2022-08-17T22:18:58.953Z,23.33
2022-08-17T22:21:27.581Z,23.80
2022-08-17T22:24:05.362Z,22.27
2022-08-17T22:27:06.877Z,23.20
2022-08-17T22:29:45.218Z,22.25
2022-08-17T22:32:31.868Z,21.00
2022-08-17T22:35:18.116Z,21.30
2022-08-17T22:37:46.032Z,20.80
2022-08-17T22:40:26.193Z,21.95
2022-08-17T22:42:53.786Z,21.63
2022-08-17T22:45:21.510Z,20.05
2022-08-17T22:47:49.114Z,20.42
2022-08-17T22:50:26.698Z,20.08
2022-08-17T22:53:19.221Z,19.85
2022-08-17T22:56:13.542Z,19.65
2022-08-17T22:59:09.618Z,20.73
2022-08-17T23:01:37.216Z,19.42
2022-08-17T23:04:11.720Z,20.35
2022-08-17T23:06:42.390Z,20.20
2022-08-17T23:09:10.018Z,19.92
2022-08-17T23:11:49.366Z,20.67
2022-08-17T23:14:20.091Z,19.35
2022-08-17T23:16:51.211Z,20.73
2022-08-17T23:19:21.538Z,21.50
2022-08-17T23:21:55.252Z,20.08
2022-08-17T23:24:26.240Z,21.80
2022-08-17T23:26:56.983Z,22.73
2022-08-17T23:29:25.997Z,19.38
2022-08-17T23:31:53.741Z,19.58
2022-08-17T23:34:24.260Z,19.50
2022-08-17T23:36:53.109Z,18.15
2022-08-17T23:39:27.436Z,18.45
2022-08-17T23:41:57.945Z,19.20
2022-08-17T23:44:26.069Z,19.05
2022-08-17T23:46:54.443Z,18.15
2022-08-17T23:49:23.411Z,15.40
2022-08-17T23:51:53.536Z,18.88
2022-08-17T23:54:44.567Z,16.67
2022-08-17T23:57:14.452Z,15.88
2022-08-17T23:59:42.043Z,15.52
